createdAt,value
2023-03-01T00:01:39.086Z,81.60
2023-03-01T00:04:26.450Z,71.63
2023-03-01T00:07:15.000Z,77.10
2023-03-01T00:10:02.750Z,81.15
2023-03-01T00:12:51.648Z,94.30
2023-03-01T00:15:42.438Z,83.57
2023-03-01T00:18:30.347Z,65.38
2023-03-01T00:21:17.675Z,74.00
2023-03-01T00:24:05.487Z,59.17
2023-03-01T00:26:56.855Z,63.35
2023-03-01T00:29:45.863Z,53.53
2023-03-01T00:32:33.493Z,58.80
2023-03-01T00:35:21.083Z,57.95
2023-03-01T00:38:09.254Z,53.58
2023-03-01T00:40:57.296Z,55.35
2023-03-01T00:43:45.327Z,60.63
2023-03-01T00:46:35.348Z,60.22
2023-03-01T00:49:25.262Z,66.50
2023-03-01T00:52:13.096Z,62.20
2023-03-01T00:55:00.596Z,73.63
2023-03-01T00:57:48.065Z,77.78
2023-03-01T01:00:35.716Z,79.50
2023-03-01T01:03:25.968Z,68.00
2023-03-01T01:06:18.225Z,73.50
2023-03-01T01:09:08.110Z,71.22
2023-03-01T01:11:55.496Z,64.88
2023-03-01T01:14:43.064Z,68.75
2023-03-01T01:17:30.883Z,62.53
2023-03-01T01:20:20.451Z,61.28
2023-03-01T01:23:09.173Z,63.50
2023-03-01T01:25:56.914Z,58.17
2023-03-01T01:28:44.345Z,68.88
2023-03-01T01:31:32.842Z,66.22
2023-03-01T01:34:22.846Z,70.68
2023-03-01T01:37:11.980Z,68.93
2023-03-01T01:40:00.474Z,67.70
2023-03-01T01:42:48.067Z,75.05
2023-03-01T01:45:37.246Z,76.78
2023-03-01T01:48:41.607Z,68.63
2023-03-01T01:51:39.583Z,75.55
2023-03-01T01:54:33.700Z,67.10
2023-03-01T01:57:25.758Z,65.53
2023-03-01T02:00:17.545Z,71.28
2023-03-01T02:03:09.603Z,61.35
2023-03-01T02:06:05.415Z,72.18
2023-03-01T02:08:54.923Z,61.47
2023-03-01T02:11:44.518Z,63.17
2023-03-01T02:14:31.836Z,64.55
2023-03-01T02:17:21.393Z,63.03
2023-03-01T02:20:17.801Z,59.00
2023-03-01T02:23:06.794Z,65.15
2023-03-01T02:26:00.453Z,60.88
2023-03-01T02:28:49.763Z,73.35
2023-03-01T02:31:43.842Z,63.58
2023-03-01T02:34:34.894Z,56.95
2023-03-01T02:37:25.790Z,62.58
2023-03-01T02:40:18.502Z,61.67
2023-03-01T02:43:12.432Z,69.20
2023-03-01T02:46:09.507Z,71.32
2023-03-01T02:48:58.769Z,64.00
2023-03-01T02:51:59.035Z,56.15
2023-03-01T02:54:51.544Z,65.72
2023-03-01T02:57:41.465Z,63.45
2023-03-01T03:00:36.420Z,58.17
2023-03-01T03:03:26.160Z,61.70
2023-03-01T03:06:13.998Z,58.40
2023-03-01T03:09:02.296Z,62.88
2023-03-01T03:11:49.678Z,66.10
2023-03-01T03:14:37.480Z,66.90
2023-03-01T03:17:24.994Z,67.97
2023-03-01T03:20:20.145Z,67.40
2023-03-01T03:23:07.995Z,57.45
2023-03-01T03:25:55.475Z,59.90
2023-03-01T03:28:42.955Z,59.20
2023-03-01T03:31:30.779Z,66.50
2023-03-01T03:34:19.184Z,56.25
2023-03-01T03:37:28.353Z,56.67
2023-03-01T03:40:16.570Z,63.30
2023-03-01T03:43:04.750Z,57.05
2023-03-01T03:45:53.663Z,66.10
2023-03-01T03:48:43.541Z,61.08
2023-03-01T03:51:31.235Z,58.08
2023-03-01T03:54:20.411Z,65.35
2023-03-01T03:57:08.155Z,60.28
2023-03-01T03:59:55.599Z,66.43
2023-03-01T04:02:44.616Z,67.85
2023-03-01T04:05:32.412Z,69.65
2023-03-01T04:08:21.722Z,81.15
2023-03-01T04:11:29.644Z,74.72
2023-03-01T04:14:17.120Z,83.70
2023-03-01T04:17:06.318Z,70.25
2023-03-01T04:19:54.565Z,74.68
2023-03-01T04:22:42.861Z,68.10
2023-03-01T04:25:30.585Z,61.17
2023-03-01T04:28:20.511Z,74.28
2023-03-01T04:31:15.000Z,72.38
2023-03-01T04:34:03.448Z,68.93
2023-03-01T04:36:50.919Z,73.60
2023-03-01T04:39:46.410Z,69.45
2023-03-01T04:42:34.173Z,68.07
2023-03-01T04:45:23.011Z,66.95
2023-03-01T04:48:10.738Z,67.18
2023-03-01T04:50:58.262Z,72.90
2023-03-01T04:53:46.389Z,62.35
2023-03-01T04:56:33.925Z,62.90
2023-03-01T04:59:23.518Z,66.90
2023-03-01T05:02:12.602Z,63.83
2023-03-01T05:05:00.357Z,65.22
2023-03-01T05:07:47.662Z,61.88
2023-03-01T05:10:38.743Z,68.07
2023-03-01T05:13:26.479Z,65.57
2023-03-01T05:16:13.958Z,63.92
2023-03-01T05:19:12.367Z,68.35
2023-03-01T05:22:06.434Z,59.53
2023-03-01T05:24:55.095Z,61.95
2023-03-01T05:27:42.802Z,54.92
2023-03-01T05:30:30.595Z,59.75
2023-03-01T05:33:18.127Z,61.40
2023-03-01T05:36:09.244Z,57.33
2023-03-01T05:38:57.073Z,53.95
2023-03-01T05:41:45.239Z,52.95
2023-03-01T05:44:32.632Z,57.42
2023-03-01T05:47:20.110Z,55.00
2023-03-01T05:50:08.702Z,55.95
2023-03-01T05:53:02.748Z,60.58
2023-03-01T05:55:50.916Z,70.35
2023-03-01T05:58:39.720Z,59.80
2023-03-01T06:01:27.181Z,57.33
2023-03-01T06:04:14.935Z,61.03
2023-03-01T06:07:02.881Z,59.97
2023-03-01T06:09:51.563Z,62.85
2023-03-01T06:12:40.658Z,72.63
2023-03-01T06:15:28.401Z,67.63
2023-03-01T06:18:16.141Z,69.40
2023-03-01T06:21:03.567Z,66.95
2023-03-01T06:23:51.378Z,69.65
2023-03-01T06:26:40.104Z,66.75
2023-03-01T06:29:27.516Z,73.22
2023-03-01T06:32:15.159Z,74.22
2023-03-01T06:35:02.550Z,65.22
2023-03-01T06:37:50.430Z,68.53
2023-03-01T06:40:38.038Z,59.22
2023-03-01T06:43:26.977Z,61.72
2023-03-01T06:46:14.744Z,63.17
2023-03-01T06:49:02.528Z,78.18
2023-03-01T06:51:49.953Z,79.22
2023-03-01T06:54:37.456Z,91.55
2023-03-01T06:57:24.976Z,86.47
2023-03-01T07:00:15.653Z,80.05
2023-03-01T07:03:04.477Z,90.63
2023-03-01T07:05:53.401Z,102.22
2023-03-01T07:08:41.145Z,106.35
2023-03-01T07:11:28.694Z,102.90
2023-03-01T07:14:16.306Z,126.50
2023-03-01T07:17:05.072Z,124.78
2023-03-01T07:19:52.604Z,124.25
2023-03-01T07:22:42.462Z,124.50
2023-03-01T07:25:29.886Z,129.88
2023-03-01T07:28:17.715Z,149.70
2023-03-01T07:31:05.764Z,133.50
2023-03-01T07:33:54.558Z,149.55
2023-03-01T07:36:44.164Z,142.48
2023-03-01T07:39:31.797Z,150.55
2023-03-01T07:42:19.129Z,129.50
2023-03-01T07:45:08.275Z,118.65
2023-03-01T07:47:56.498Z,119.75
2023-03-01T07:50:45.634Z,123.38
2023-03-01T07:53:35.033Z,106.57
2023-03-01T07:56:23.124Z,107.57
2023-03-01T07:59:10.389Z,97.57
2023-03-01T08:01:57.922Z,91.95
2023-03-01T08:04:45.459Z,83.28
2023-03-01T08:07:35.156Z,90.85
2023-03-01T08:10:23.247Z,85.20
2023-03-01T08:13:11.106Z,81.05
2023-03-01T08:16:04.279Z,77.82
2023-03-01T08:18:51.938Z,72.75
2023-03-01T08:21:40.055Z,72.25
2023-03-01T08:24:29.119Z,62.70
2023-03-01T08:27:17.965Z,62.03
2023-03-01T08:30:06.043Z,60.70
2023-03-01T08:32:54.017Z,61.55
2023-03-01T08:35:41.881Z,52.50
2023-03-01T08:38:29.222Z,55.28
2023-03-01T08:41:20.287Z,54.10
2023-03-01T08:44:08.400Z,52.03
2023-03-01T08:46:56.758Z,47.38
2023-03-01T08:49:44.421Z,50.78
2023-03-01T08:52:32.034Z,42.50
2023-03-01T08:55:19.573Z,40.08
2023-03-01T08:58:08.669Z,36.25
2023-03-01T09:00:57.565Z,33.35
2023-03-01T09:03:45.360Z,34.58
2023-03-01T09:06:34.641Z,43.72
2023-03-01T09:09:22.181Z,41.88
2023-03-01T09:12:09.749Z,39.90
2023-03-01T09:14:58.482Z,37.40
2023-03-01T09:17:46.181Z,34.97
2023-03-01T09:20:34.081Z,31.85
2023-03-01T09:23:21.719Z,28.33
2023-03-01T09:26:10.544Z,29.73
2023-03-01T09:28:58.742Z,25.17
2023-03-01T09:31:47.911Z,29.35
2023-03-01T09:34:55.525Z,32.35
2023-03-01T09:37:44.029Z,29.23
2023-03-01T09:40:33.854Z,28.50
2023-03-01T09:43:27.485Z,30.55
2023-03-01T09:46:18.197Z,28.48
2023-03-01T09:49:14.420Z,28.85
2023-03-01T09:52:08.775Z,28.98
2023-03-01T09:55:00.617Z,30.90
2023-03-01T09:57:54.624Z,31.70
2023-03-01T10:00:45.490Z,32.00
2023-03-01T10:03:41.781Z,30.55
2023-03-01T10:06:35.637Z,34.53
2023-03-01T10:09:23.497Z,35.33
2023-03-01T10:12:14.586Z,31.17
2023-03-01T10:15:08.914Z,36.80
2023-03-01T10:18:01.132Z,28.67
2023-03-01T10:20:55.358Z,30.10
2023-03-01T10:23:44.283Z,28.83
2023-03-01T10:26:46.983Z,25.38
2023-03-01T10:29:50.646Z,29.13
2023-03-01T10:32:38.257Z,27.80
2023-03-01T10:35:28.187Z,31.65
2023-03-01T10:38:17.654Z,26.92
2023-03-01T10:41:09.527Z,27.92
2023-03-01T10:43:59.189Z,28.83
2023-03-01T10:46:46.748Z,30.73
2023-03-01T10:49:34.358Z,28.00
2023-03-01T10:52:24.312Z,25.60
2023-03-01T10:55:28.219Z,26.30
2023-03-01T10:58:22.606Z,25.60
2023-03-01T11:01:28.336Z,24.23
2023-03-01T11:04:17.242Z,19.90
2023-03-01T11:07:04.986Z,23.08
2023-03-01T11:09:52.359Z,20.63
2023-03-01T11:12:39.819Z,21.23
2023-03-01T11:15:31.402Z,20.42
2023-03-01T11:18:31.048Z,13.77
2023-03-01T11:21:25.330Z,15.32
2023-03-01T11:24:16.940Z,20.15
2023-03-01T11:27:09.057Z,16.33
2023-03-01T11:30:01.741Z,14.38
2023-03-01T11:33:01.973Z,14.50
2023-03-01T11:35:57.744Z,14.32
2023-03-01T11:38:45.809Z,18.88
2023-03-01T11:41:37.594Z,19.65
2023-03-01T11:44:29.369Z,13.93
2023-03-01T11:47:34.569Z,15.45
2023-03-01T11:50:32.135Z,16.88
2023-03-01T11:53:47.425Z,16.33
2023-03-01T11:56:40.559Z,18.27
2023-03-01T11:59:57.176Z,21.45
2023-03-01T12:03:25.173Z,16.85
2023-03-01T12:06:32.274Z,21.70
2023-03-01T12:09:43.201Z,20.08
2023-03-01T12:12:39.822Z,17.70
2023-03-01T12:15:47.612Z,22.67
2023-03-01T12:19:03.866Z,22.13
2023-03-01T12:22:19.177Z,21.83
2023-03-01T12:25:30.851Z,20.50
2023-03-01T12:28:36.047Z,22.13
2023-03-01T12:32:02.192Z,18.60
2023-03-01T12:35:13.705Z,21.88
2023-03-01T12:38:13.950Z,21.88
2023-03-01T12:41:31.880Z,19.17
2023-03-01T12:44:39.460Z,20.33
2023-03-01T12:47:41.266Z,20.02
2023-03-01T12:50:39.730Z,20.00
2023-03-01T12:53:31.961Z,21.17
2023-03-01T12:56:22.226Z,20.27
2023-03-01T12:59:17.960Z,22.58
2023-03-01T13:02:18.243Z,19.83
2023-03-01T13:05:21.949Z,19.60
2023-03-01T13:08:17.519Z,19.02
2023-03-01T13:11:09.453Z,22.85
2023-03-01T13:14:38.752Z,20.65
2023-03-01T13:17:34.718Z,20.65
2023-03-01T13:20:25.589Z,22.10
2023-03-01T13:23:26.816Z,20.73
2023-03-01T13:26:18.384Z,22.45
2023-03-01T13:29:05.870Z,19.83
2023-03-01T13:32:02.803Z,22.52
2023-03-01T13:34:55.071Z,21.42
2023-03-01T13:37:42.733Z,19.20
2023-03-01T13:40:59.897Z,18.67
2023-03-01T13:43:50.044Z,23.08
2023-03-01T13:46:39.703Z,21.83
2023-03-01T13:49:44.381Z,20.10
2023-03-01T13:52:40.362Z,22.02
2023-03-01T13:55:38.699Z,20.50
2023-03-01T13:58:28.450Z,21.00
2023-03-01T14:01:25.087Z,19.95
2023-03-01T14:04:23.592Z,21.25
2023-03-01T14:07:13.034Z,18.85
2023-03-01T14:10:03.339Z,19.48
2023-03-01T14:12:59.750Z,20.45
2023-03-01T14:16:06.539Z,26.63
2023-03-01T14:19:05.684Z,22.17
2023-03-01T14:22:05.277Z,20.27
2023-03-01T14:24:54.579Z,23.42
2023-03-01T14:27:43.216Z,23.42
2023-03-01T14:30:36.127Z,23.98
2023-03-01T14:33:28.836Z,21.33
2023-03-01T14:36:17.375Z,23.35
2023-03-01T14:39:19.204Z,19.08
2023-03-01T14:42:15.371Z,22.75
2023-03-01T14:45:06.551Z,23.17
2023-03-01T14:47:54.090Z,21.95
2023-03-01T14:50:44.437Z,23.65
2023-03-01T14:53:42.711Z,21.00
2023-03-01T14:56:47.159Z,19.95
2023-03-01T14:59:36.419Z,22.33
2023-03-01T15:02:26.138Z,19.58
2023-03-01T15:05:16.984Z,21.20
2023-03-01T15:08:05.890Z,21.98
2023-03-01T15:11:06.221Z,21.00
2023-03-01T15:13:56.135Z,22.35
2023-03-01T15:16:44.803Z,25.77
2023-03-01T15:19:32.856Z,22.80
2023-03-01T15:22:20.294Z,19.20
2023-03-01T15:25:16.144Z,25.00
2023-03-01T15:28:05.878Z,20.13
2023-03-01T15:30:59.731Z,26.65
2023-03-01T15:33:48.437Z,22.00
2023-03-01T15:36:44.770Z,23.30
2023-03-01T15:39:44.280Z,22.85
2023-03-01T15:42:40.210Z,19.30
2023-03-01T15:45:31.265Z,20.25
2023-03-01T15:48:22.346Z,23.42
2023-03-01T15:51:15.132Z,20.02
2023-03-01T15:54:06.661Z,23.15
2023-03-01T15:56:54.181Z,22.38
2023-03-01T15:59:41.997Z,25.17
2023-03-01T16:02:31.116Z,22.25
2023-03-01T16:05:25.412Z,25.73
2023-03-01T16:08:12.888Z,25.35
2023-03-01T16:11:00.309Z,25.50
2023-03-01T16:13:48.210Z,30.85
2023-03-01T16:16:36.793Z,37.30
2023-03-01T16:19:25.698Z,33.00
2023-03-01T16:22:13.352Z,26.77
2023-03-01T16:25:01.090Z,29.17
2023-03-01T16:27:50.834Z,28.83
2023-03-01T16:30:38.840Z,26.95
2023-03-01T16:33:33.281Z,30.60
2023-03-01T16:36:25.463Z,37.47
2023-03-01T16:39:12.882Z,30.90
2023-03-01T16:42:02.426Z,31.98
2023-03-01T16:44:49.983Z,28.20
2023-03-01T16:47:37.484Z,27.42
2023-03-01T16:50:25.204Z,24.73
2023-03-01T16:53:14.412Z,32.75
2023-03-01T16:56:02.513Z,25.75
2023-03-01T16:58:50.376Z,27.30
2023-03-01T17:01:41.817Z,27.88
2023-03-01T17:04:29.565Z,34.97
2023-03-01T17:07:16.930Z,29.48
2023-03-01T17:10:09.003Z,29.02
2023-03-01T17:12:56.391Z,37.75
2023-03-01T17:15:44.337Z,43.85
2023-03-01T17:18:31.845Z,36.58
2023-03-01T17:21:19.456Z,36.53
2023-03-01T17:24:07.068Z,37.83
2023-03-01T17:26:56.547Z,35.90
2023-03-01T17:29:44.187Z,34.95
2023-03-01T17:32:31.853Z,44.50
2023-03-01T17:35:19.757Z,28.08
2023-03-01T17:38:07.835Z,31.92
2023-03-01T17:40:55.502Z,34.35
2023-03-01T17:43:44.347Z,32.97
2023-03-01T17:46:32.234Z,33.90
2023-03-01T17:49:19.592Z,32.03
2023-03-01T17:52:06.957Z,27.75
2023-03-01T17:54:54.619Z,36.65
2023-03-01T17:57:43.223Z,42.47
2023-03-01T18:00:32.479Z,43.90
2023-03-01T18:03:21.544Z,33.85
2023-03-01T18:06:14.226Z,38.15
2023-03-01T18:09:01.932Z,33.83
2023-03-01T18:11:49.768Z,38.92
2023-03-01T18:14:37.640Z,40.08
2023-03-01T18:17:26.884Z,38.90
2023-03-01T18:20:15.507Z,39.78
2023-03-01T18:23:03.089Z,33.35
2023-03-01T18:25:51.158Z,38.05
2023-03-01T18:28:40.203Z,38.55
2023-03-01T18:31:27.948Z,32.28
2023-03-01T18:34:16.784Z,38.45
2023-03-01T18:37:11.616Z,34.50
2023-03-01T18:39:59.317Z,40.25
2023-03-01T18:42:46.750Z,37.40
2023-03-01T18:45:34.095Z,32.15
2023-03-01T18:48:21.379Z,41.42
2023-03-01T18:51:12.002Z,45.95
2023-03-01T18:54:00.162Z,50.67
2023-03-01T18:56:48.078Z,50.03
2023-03-01T18:59:35.913Z,50.33
2023-03-01T19:02:23.467Z,57.78
2023-03-01T19:05:11.311Z,55.83
2023-03-01T19:08:00.177Z,100.43
2023-03-01T19:10:47.818Z,118.38
2023-03-01T19:13:37.545Z,114.78
2023-03-01T19:16:27.904Z,103.15
2023-03-01T19:19:15.288Z,103.75
2023-03-01T19:22:06.028Z,109.90
2023-03-01T19:24:55.264Z,98.22
2023-03-01T19:27:42.372Z,80.60
2023-03-01T19:30:29.890Z,77.00
2023-03-01T19:33:17.522Z,81.13
2023-03-01T19:36:05.612Z,72.15
2023-03-01T19:38:52.995Z,73.57
2023-03-01T19:41:42.094Z,65.20
2023-03-01T19:44:29.791Z,67.22
2023-03-01T19:47:19.280Z,63.08
2023-03-01T19:50:07.509Z,65.72
2023-03-01T19:52:55.243Z,58.10
2023-03-01T19:55:43.041Z,85.55
2023-03-01T19:58:33.569Z,109.28
2023-03-01T20:01:24.174Z,115.55
2023-03-01T20:04:12.941Z,128.30
2023-03-01T20:07:00.678Z,112.55
2023-03-01T20:09:48.130Z,115.22
2023-03-01T20:12:37.728Z,104.90
2023-03-01T20:15:26.877Z,100.32
2023-03-01T20:18:15.369Z,107.53
2023-03-01T20:21:05.396Z,108.80
2023-03-01T20:23:55.679Z,102.28
2023-03-01T20:26:43.140Z,96.07
2023-03-01T20:29:30.873Z,100.45
2023-03-01T20:32:19.592Z,90.78
2023-03-01T20:35:08.325Z,105.60
2023-03-01T20:37:56.049Z,111.68
2023-03-01T20:40:43.627Z,114.60
2023-03-01T20:43:31.463Z,106.82
2023-03-01T20:46:19.025Z,109.25
2023-03-01T20:49:07.890Z,114.90
2023-03-01T20:51:55.441Z,104.55
2023-03-01T20:54:43.315Z,118.38
2023-03-01T20:57:30.520Z,153.70
2023-03-01T21:00:19.090Z,136.82
2023-03-01T21:03:06.595Z,136.73
2023-03-01T21:05:57.952Z,112.15
2023-03-01T21:08:45.564Z,109.97
2023-03-01T21:11:33.285Z,86.78
2023-03-01T21:14:21.605Z,86.20
2023-03-01T21:17:10.260Z,79.90
2023-03-01T21:19:57.981Z,91.50
2023-03-01T21:22:47.228Z,91.65
2023-03-01T21:25:35.106Z,83.07
2023-03-01T21:28:23.159Z,90.40
2023-03-01T21:31:12.959Z,73.75
2023-03-01T21:34:04.194Z,80.68
2023-03-01T21:36:51.515Z,84.32
2023-03-01T21:39:40.879Z,75.20
2023-03-01T21:42:28.370Z,70.00
2023-03-01T21:45:16.232Z,83.78
2023-03-01T21:48:03.606Z,75.18
2023-03-01T21:50:56.536Z,78.75
2023-03-01T21:53:44.584Z,70.03
2023-03-01T21:56:38.793Z,76.85
2023-03-01T21:59:26.995Z,76.88
2023-03-01T22:02:15.867Z,68.25
2023-03-01T22:05:03.853Z,72.07
2023-03-01T22:07:52.102Z,71.85
2023-03-01T22:10:43.570Z,71.05
2023-03-01T22:13:32.298Z,74.75
2023-03-01T22:16:21.416Z,68.28
2023-03-01T22:19:09.600Z,77.15
2023-03-01T22:21:57.271Z,68.00
2023-03-01T22:24:44.823Z,61.45
2023-03-01T22:27:32.760Z,75.38
2023-03-01T22:30:21.628Z,78.05
2023-03-01T22:33:09.258Z,73.15
2023-03-01T22:35:57.248Z,80.68
2023-03-01T22:38:45.041Z,65.78
2023-03-01T22:41:34.833Z,71.25
2023-03-01T22:44:23.628Z,75.47
2023-03-01T22:47:12.959Z,70.47
2023-03-01T22:50:00.420Z,76.43
2023-03-01T22:52:50.023Z,76.82
2023-03-01T22:55:37.697Z,86.47
2023-03-01T22:58:25.114Z,98.95
2023-03-01T23:01:17.392Z,89.85
2023-03-01T23:04:06.418Z,92.85
2023-03-01T23:06:54.937Z,91.28
2023-03-01T23:09:43.068Z,81.13
2023-03-01T23:12:30.399Z,86.05
2023-03-01T23:15:18.157Z,87.25
2023-03-01T23:18:05.826Z,82.05
2023-03-01T23:20:54.948Z,76.45
2023-03-01T23:23:43.338Z,91.15
2023-03-01T23:26:31.893Z,87.20
2023-03-01T23:29:19.933Z,99.63
2023-03-01T23:32:07.749Z,95.63
2023-03-01T23:34:55.752Z,91.20
2023-03-01T23:37:46.029Z,88.00
2023-03-01T23:40:33.449Z,75.80
2023-03-01T23:43:20.793Z,93.28
2023-03-01T23:46:10.244Z,89.63
2023-03-01T23:48:58.533Z,81.88
2023-03-01T23:51:47.795Z,82.47
2023-03-01T23:54:36.549Z,86.65
2023-03-01T23:57:24.377Z,87.53
